sensor_id;sensor_type;location;lat;lon;timestamp;P1;durP1;ratioP1;P2;durP2;ratioP2
3349;SDS011;1688;51.000;13.684;2022-07-29T00:00:43;1.97;;;1.33;;
3349;SDS011;1688;51.000;13.684;2022-07-29T00:03:14;3.90;;;1.70;;
3349;SDS011;1688;51.000;13.684;2022-07-29T00:05:40;1.77;;;1.27;;
3349;SDS011;1688;51.000;13.684;2022-07-29T00:08:08;3.07;;;1.63;;
3349;SDS011;1688;51.000;13.684;2022-07-29T00:10:34;1.50;;;1.40;;
3349;SDS011;1688;51.000;13.684;2022-07-29T00:13:00;1.37;;;1.27;;
3349;SDS011;1688;51.000;13.684;2022-07-29T00:15:26;3.23;;;1.57;;
3349;SDS011;1688;51.000;13.684;2022-07-29T00:17:52;1.70;;;1.27;;
3349;SDS011;1688;51.000;13.684;2022-07-29T00:20:18;2.23;;;1.50;;
3349;SDS011;1688;51.000;13.684;2022-07-29T00:22:44;1.70;;;1.47;;
3349;SDS011;1688;51.000;13.684;2022-07-29T00:25:12;3.00;;;1.40;;
3349;SDS011;1688;51.000;13.684;2022-07-29T00:27:39;2.50;;;1.23;;
3349;SDS011;1688;51.000;13.684;2022-07-29T00:30:05;1.33;;;1.23;;
3349;SDS011;1688;51.000;13.684;2022-07-29T00:32:32;11.13;;;1.27;;
3349;SDS011;1688;51.000;13.684;2022-07-29T00:34:58;2.40;;;1.57;;
3349;SDS011;1688;51.000;13.684;2022-07-29T00:37:42;1.70;;;1.10;;
3349;SDS011;1688;51.000;13.684;2022-07-29T00:40:09;1.50;;;1.40;;
3349;SDS011;1688;51.000;13.684;2022-07-29T00:42:44;3.00;;;1.30;;
3349;SDS011;1688;51.000;13.684;2022-07-29T00:45:12;2.90;;;1.20;;
3349;SDS011;1688;51.000;13.684;2022-07-29T00:47:38;1.53;;;1.40;;
3349;SDS011;1688;51.000;13.684;2022-07-29T00:50:04;6.63;;;1.47;;
3349;SDS011;1688;51.000;13.684;2022-07-29T00:52:32;3.90;;;1.87;;
3349;SDS011;1688;51.000;13.684;2022-07-29T00:55:02;1.57;;;1.07;;
3349;SDS011;1688;51.000;13.684;2022-07-29T00:57:30;4.17;;;1.67;;
3349;SDS011;1688;51.000;13.684;2022-07-29T00:59:57;1.67;;;1.40;;
3349;SDS011;1688;51.000;13.684;2022-07-29T01:02:23;3.13;;;1.33;;
3349;SDS011;1688;51.000;13.684;2022-07-29T01:04:49;1.53;;;1.37;;
3349;SDS011;1688;51.000;13.684;2022-07-29T01:07:16;7.40;;;1.63;;
3349;SDS011;1688;51.000;13.684;2022-07-29T01:09:43;1.80;;;1.50;;
3349;SDS011;1688;51.000;13.684;2022-07-29T01:12:10;2.93;;;1.90;;
3349;SDS011;1688;51.000;13.684;2022-07-29T01:14:38;2.13;;;1.77;;
3349;SDS011;1688;51.000;13.684;2022-07-29T01:22:31;1.67;;;1.57;;
3349;SDS011;1688;51.000;13.684;2022-07-29T01:30:40;2.40;;;1.57;;
3349;SDS011;1688;51.000;13.684;2022-07-29T01:33:10;1.83;;;1.63;;
3349;SDS011;1688;51.000;13.684;2022-07-29T01:36:01;2.10;;;1.50;;
3349;SDS011;1688;51.000;13.684;2022-07-29T01:38:31;1.20;;;1.10;;
3349;SDS011;1688;51.000;13.684;2022-07-29T01:41:11;1.23;;;1.13;;
3349;SDS011;1688;51.000;13.684;2022-07-29T01:43:50;10.03;;;1.87;;
3349;SDS011;1688;51.000;13.684;2022-07-29T01:46:23;1.63;;;1.50;;
3349;SDS011;1688;51.000;13.684;2022-07-29T01:48:58;5.77;;;1.77;;
3349;SDS011;1688;51.000;13.684;2022-07-29T01:51:31;6.30;;;2.00;;
3349;SDS011;1688;51.000;13.684;2022-07-29T01:54:04;1.30;;;1.20;;
3349;SDS011;1688;51.000;13.684;2022-07-29T01:56:51;3.10;;;2.43;;
3349;SDS011;1688;51.000;13.684;2022-07-29T01:59:19;4.83;;;2.97;;
3349;SDS011;1688;51.000;13.684;2022-07-29T02:01:46;5.93;;;4.63;;
3349;SDS011;1688;51.000;13.684;2022-07-29T02:04:13;8.20;;;5.93;;
3349;SDS011;1688;51.000;13.684;2022-07-29T02:06:42;6.90;;;5.67;;
3349;SDS011;1688;51.000;13.684;2022-07-29T02:09:10;12.77;;;5.00;;
3349;SDS011;1688;51.000;13.684;2022-07-29T02:11:39;7.40;;;5.83;;
3349;SDS011;1688;51.000;13.684;2022-07-29T02:14:08;7.70;;;5.23;;
3349;SDS011;1688;51.000;13.684;2022-07-29T02:16:37;8.37;;;4.97;;
3349;SDS011;1688;51.000;13.684;2022-07-29T02:19:04;11.63;;;5.30;;
3349;SDS011;1688;51.000;13.684;2022-07-29T02:21:33;8.90;;;5.27;;
3349;SDS011;1688;51.000;13.684;2022-07-29T02:24:00;18.60;;;9.60;;
3349;SDS011;1688;51.000;13.684;2022-07-29T02:26:27;21.07;;;8.00;;
3349;SDS011;1688;51.000;13.684;2022-07-29T02:28:55;8.00;;;7.00;;
3349;SDS011;1688;51.000;13.684;2022-07-29T02:31:23;11.80;;;7.20;;
3349;SDS011;1688;51.000;13.684;2022-07-29T02:33:51;10.50;;;7.63;;
3349;SDS011;1688;51.000;13.684;2022-07-29T02:36:20;9.83;;;7.50;;
3349;SDS011;1688;51.000;13.684;2022-07-29T02:38:48;16.40;;;8.10;;
3349;SDS011;1688;51.000;13.684;2022-07-29T02:41:16;9.47;;;7.50;;
3349;SDS011;1688;51.000;13.684;2022-07-29T02:43:47;15.50;;;7.83;;
3349;SDS011;1688;51.000;13.684;2022-07-29T02:46:19;9.20;;;6.67;;
3349;SDS011;1688;51.000;13.684;2022-07-29T02:48:52;11.37;;;6.90;;
3349;SDS011;1688;51.000;13.684;2022-07-29T02:51:25;14.57;;;7.30;;
3349;SDS011;1688;51.000;13.684;2022-07-29T02:53:56;15.57;;;6.23;;
3349;SDS011;1688;51.000;13.684;2022-07-29T02:56:31;9.30;;;6.53;;
3349;SDS011;1688;51.000;13.684;2022-07-29T02:59:01;9.50;;;7.07;;
3349;SDS011;1688;51.000;13.684;2022-07-29T03:01:31;11.10;;;6.57;;
3349;SDS011;1688;51.000;13.684;2022-07-29T03:04:00;16.30;;;7.40;;
3349;SDS011;1688;51.000;13.684;2022-07-29T03:06:28;10.23;;;7.67;;
3349;SDS011;1688;51.000;13.684;2022-07-29T03:08:56;7.50;;;6.70;;
3349;SDS011;1688;51.000;13.684;2022-07-29T03:11:24;11.20;;;7.30;;
3349;SDS011;1688;51.000;13.684;2022-07-29T03:13:50;11.90;;;6.90;;
3349;SDS011;1688;51.000;13.684;2022-07-29T03:16:18;11.50;;;7.83;;
3349;SDS011;1688;51.000;13.684;2022-07-29T03:18:45;10.37;;;7.50;;
3349;SDS011;1688;51.000;13.684;2022-07-29T03:21:11;11.20;;;7.80;;
3349;SDS011;1688;51.000;13.684;2022-07-29T03:23:37;12.93;;;7.83;;
3349;SDS011;1688;51.000;13.684;2022-07-29T03:26:10;10.00;;;7.70;;
3349;SDS011;1688;51.000;13.684;2022-07-29T03:28:37;14.03;;;7.40;;
3349;SDS011;1688;51.000;13.684;2022-07-29T03:31:02;9.90;;;5.90;;
3349;SDS011;1688;51.000;13.684;2022-07-29T03:33:28;10.57;;;6.27;;
3349;SDS011;1688;51.000;13.684;2022-07-29T03:35:55;8.20;;;6.50;;
3349;SDS011;1688;51.000;13.684;2022-07-29T03:38:23;7.43;;;6.70;;
3349;SDS011;1688;51.000;13.684;2022-07-29T03:41:02;7.20;;;5.93;;
3349;SDS011;1688;51.000;13.684;2022-07-29T03:43:32;9.80;;;6.30;;
3349;SDS011;1688;51.000;13.684;2022-07-29T03:46:02;13.00;;;5.90;;
3349;SDS011;1688;51.000;13.684;2022-07-29T03:48:32;11.17;;;7.80;;
3349;SDS011;1688;51.000;13.684;2022-07-29T03:51:01;8.50;;;6.67;;
3349;SDS011;1688;51.000;13.684;2022-07-29T03:53:27;18.30;;;12.27;;
3349;SDS011;1688;51.000;13.684;2022-07-29T03:55:54;29.00;;;19.73;;
3349;SDS011;1688;51.000;13.684;2022-07-29T03:58:24;26.93;;;17.07;;
3349;SDS011;1688;51.000;13.684;2022-07-29T04:00:51;22.87;;;14.77;;
3349;SDS011;1688;51.000;13.684;2022-07-29T04:03:19;28.50;;;17.00;;
3349;SDS011;1688;51.000;13.684;2022-07-29T04:05:45;21.80;;;14.67;;
3349;SDS011;1688;51.000;13.684;2022-07-29T04:08:23;24.80;;;17.60;;
3349;SDS011;1688;51.000;13.684;2022-07-29T04:10:49;31.20;;;18.20;;
3349;SDS011;1688;51.000;13.684;2022-07-29T04:13:17;20.63;;;14.37;;
3349;SDS011;1688;51.000;13.684;2022-07-29T04:15:43;26.47;;;14.93;;
3349;SDS011;1688;51.000;13.684;2022-07-29T04:18:09;19.77;;;14.43;;
3349;SDS011;1688;51.000;13.684;2022-07-29T04:20:35;22.00;;;15.87;;
3349;SDS011;1688;51.000;13.684;2022-07-29T04:23:01;23.67;;;14.47;;
3349;SDS011;1688;51.000;13.684;2022-07-29T04:25:26;22.23;;;13.97;;
3349;SDS011;1688;51.000;13.684;2022-07-29T04:27:52;18.67;;;12.43;;
3349;SDS011;1688;51.000;13.684;2022-07-29T04:30:27;24.43;;;11.60;;
3349;SDS011;1688;51.000;13.684;2022-07-29T04:32:54;20.77;;;14.23;;
3349;SDS011;1688;51.000;13.684;2022-07-29T04:35:20;23.07;;;12.33;;
3349;SDS011;1688;51.000;13.684;2022-07-29T04:37:46;20.10;;;12.67;;
3349;SDS011;1688;51.000;13.684;2022-07-29T04:40:12;23.27;;;15.27;;
3349;SDS011;1688;51.000;13.684;2022-07-29T04:42:38;32.20;;;17.57;;
3349;SDS011;1688;51.000;13.684;2022-07-29T04:45:04;21.07;;;13.60;;
3349;SDS011;1688;51.000;13.684;2022-07-29T04:47:31;23.37;;;14.93;;
3349;SDS011;1688;51.000;13.684;2022-07-29T04:49:56;24.83;;;15.37;;
3349;SDS011;1688;51.000;13.684;2022-07-29T04:52:22;20.13;;;15.90;;
3349;SDS011;1688;51.000;13.684;2022-07-29T04:54:48;28.77;;;17.50;;
3349;SDS011;1688;51.000;13.684;2022-07-29T04:57:16;38.87;;;19.43;;
3349;SDS011;1688;51.000;13.684;2022-07-29T04:59:42;26.37;;;14.87;;
3349;SDS011;1688;51.000;13.684;2022-07-29T05:02:09;35.53;;;17.07;;
3349;SDS011;1688;51.000;13.684;2022-07-29T05:04:35;24.73;;;16.33;;
3349;SDS011;1688;51.000;13.684;2022-07-29T05:07:01;29.70;;;17.70;;
3349;SDS011;1688;51.000;13.684;2022-07-29T05:09:27;30.73;;;20.20;;
3349;SDS011;1688;51.000;13.684;2022-07-29T05:11:53;47.70;;;19.83;;
3349;SDS011;1688;51.000;13.684;2022-07-29T05:14:18;29.33;;;19.43;;
3349;SDS011;1688;51.000;13.684;2022-07-29T05:16:45;31.40;;;22.43;;
3349;SDS011;1688;51.000;13.684;2022-07-29T05:19:11;27.17;;;21.53;;
3349;SDS011;1688;51.000;13.684;2022-07-29T05:21:37;34.23;;;20.30;;
3349;SDS011;1688;51.000;13.684;2022-07-29T05:24:03;30.20;;;21.33;;
3349;SDS011;1688;51.000;13.684;2022-07-29T05:26:29;53.70;;;27.60;;
3349;SDS011;1688;51.000;13.684;2022-07-29T05:28:57;37.37;;;21.00;;
3349;SDS011;1688;51.000;13.684;2022-07-29T05:31:23;38.70;;;24.17;;
3349;SDS011;1688;51.000;13.684;2022-07-29T05:33:49;40.30;;;24.07;;
3349;SDS011;1688;51.000;13.684;2022-07-29T05:36:15;39.97;;;24.77;;
3349;SDS011;1688;51.000;13.684;2022-07-29T05:38:42;42.17;;;25.43;;
3349;SDS011;1688;51.000;13.684;2022-07-29T05:41:08;37.77;;;22.37;;
3349;SDS011;1688;51.000;13.684;2022-07-29T05:43:33;26.17;;;16.73;;
3349;SDS011;1688;51.000;13.684;2022-07-29T05:45:59;17.80;;;12.83;;
3349;SDS011;1688;51.000;13.684;2022-07-29T05:48:25;24.53;;;13.33;;
3349;SDS011;1688;51.000;13.684;2022-07-29T05:50:52;12.90;;;10.20;;
3349;SDS011;1688;51.000;13.684;2022-07-29T05:53:18;16.87;;;11.87;;
3349;SDS011;1688;51.000;13.684;2022-07-29T05:55:44;17.30;;;12.00;;
3349;SDS011;1688;51.000;13.684;2022-07-29T05:58:10;22.17;;;13.07;;
3349;SDS011;1688;51.000;13.684;2022-07-29T06:00:36;42.90;;;27.17;;
3349;SDS011;1688;51.000;13.684;2022-07-29T06:03:01;37.93;;;23.00;;
3349;SDS011;1688;51.000;13.684;2022-07-29T06:05:27;41.60;;;24.50;;
3349;SDS011;1688;51.000;13.684;2022-07-29T06:07:53;39.77;;;23.83;;
3349;SDS011;1688;51.000;13.684;2022-07-29T06:10:19;42.83;;;24.17;;
3349;SDS011;1688;51.000;13.684;2022-07-29T06:12:45;46.87;;;28.23;;
3349;SDS011;1688;51.000;13.684;2022-07-29T06:15:10;39.33;;;25.97;;
3349;SDS011;1688;51.000;13.684;2022-07-29T06:17:36;49.40;;;29.60;;
3349;SDS011;1688;51.000;13.684;2022-07-29T06:20:02;40.70;;;28.70;;
3349;SDS011;1688;51.000;13.684;2022-07-29T06:22:29;30.13;;;18.60;;
3349;SDS011;1688;51.000;13.684;2022-07-29T06:24:55;24.60;;;15.03;;
3349;SDS011;1688;51.000;13.684;2022-07-29T06:27:21;57.90;;;35.57;;
3349;SDS011;1688;51.000;13.684;2022-07-29T06:29:46;84.87;;;37.53;;
3349;SDS011;1688;51.000;13.684;2022-07-29T06:32:12;57.87;;;32.17;;
3349;SDS011;1688;51.000;13.684;2022-07-29T06:34:38;67.50;;;38.50;;
3349;SDS011;1688;51.000;13.684;2022-07-29T06:37:07;69.07;;;40.30;;
3349;SDS011;1688;51.000;13.684;2022-07-29T06:39:34;57.53;;;31.63;;
3349;SDS011;1688;51.000;13.684;2022-07-29T06:42:06;27.63;;;18.90;;
3349;SDS011;1688;51.000;13.684;2022-07-29T06:44:32;33.23;;;21.30;;
3349;SDS011;1688;51.000;13.684;2022-07-29T06:47:00;51.13;;;29.20;;
3349;SDS011;1688;51.000;13.684;2022-07-29T06:49:27;60.37;;;35.60;;
3349;SDS011;1688;51.000;13.684;2022-07-29T06:51:53;60.23;;;38.30;;
3349;SDS011;1688;51.000;13.684;2022-07-29T06:54:19;60.20;;;35.87;;
3349;SDS011;1688;51.000;13.684;2022-07-29T06:56:46;67.97;;;37.20;;
3349;SDS011;1688;51.000;13.684;2022-07-29T06:59:12;53.17;;;34.60;;
3349;SDS011;1688;51.000;13.684;2022-07-29T07:01:39;72.47;;;40.20;;
3349;SDS011;1688;51.000;13.684;2022-07-29T07:04:07;67.47;;;40.93;;
3349;SDS011;1688;51.000;13.684;2022-07-29T07:06:33;74.40;;;40.93;;
3349;SDS011;1688;51.000;13.684;2022-07-29T07:09:00;81.10;;;43.53;;
3349;SDS011;1688;51.000;13.684;2022-07-29T07:11:26;72.43;;;39.83;;
3349;SDS011;1688;51.000;13.684;2022-07-29T07:13:52;73.13;;;38.70;;
3349;SDS011;1688;51.000;13.684;2022-07-29T07:16:18;71.93;;;36.67;;
3349;SDS011;1688;51.000;13.684;2022-07-29T07:18:44;62.00;;;40.00;;
3349;SDS011;1688;51.000;13.684;2022-07-29T07:21:11;75.60;;;39.87;;
3349;SDS011;1688;51.000;13.684;2022-07-29T07:23:37;72.90;;;39.50;;
3349;SDS011;1688;51.000;13.684;2022-07-29T07:26:03;69.03;;;36.60;;
3349;SDS011;1688;51.000;13.684;2022-07-29T07:28:31;79.93;;;38.97;;
3349;SDS011;1688;51.000;13.684;2022-07-29T07:30:56;78.13;;;43.53;;
3349;SDS011;1688;51.000;13.684;2022-07-29T07:33:22;93.27;;;42.53;;
3349;SDS011;1688;51.000;13.684;2022-07-29T07:35:48;80.73;;;44.57;;
3349;SDS011;1688;51.000;13.684;2022-07-29T07:38:14;89.67;;;42.53;;
3349;SDS011;1688;51.000;13.684;2022-07-29T07:40:40;71.57;;;39.70;;
3349;SDS011;1688;51.000;13.684;2022-07-29T07:43:05;105.70;;;43.63;;
3349;SDS011;1688;51.000;13.684;2022-07-29T07:45:31;85.60;;;44.77;;
3349;SDS011;1688;51.000;13.684;2022-07-29T07:47:57;102.77;;;47.50;;
3349;SDS011;1688;51.000;13.684;2022-07-29T07:50:23;78.13;;;43.53;;
3349;SDS011;1688;51.000;13.684;2022-07-29T07:52:53;72.73;;;41.50;;
3349;SDS011;1688;51.000;13.684;2022-07-29T07:55:22;86.27;;;45.10;;
3349;SDS011;1688;51.000;13.684;2022-07-29T07:57:49;79.60;;;40.93;;
3349;SDS011;1688;51.000;13.684;2022-07-29T08:00:15;74.70;;;41.17;;
3349;SDS011;1688;51.000;13.684;2022-07-29T08:02:42;73.50;;;41.00;;
3349;SDS011;1688;51.000;13.684;2022-07-29T08:05:10;82.57;;;39.73;;
3349;SDS011;1688;51.000;13.684;2022-07-29T08:07:40;76.33;;;41.57;;
3349;SDS011;1688;51.000;13.684;2022-07-29T08:10:06;67.87;;;39.50;;
3349;SDS011;1688;51.000;13.684;2022-07-29T08:12:33;67.43;;;35.50;;
3349;SDS011;1688;51.000;13.684;2022-07-29T08:14:59;74.77;;;36.60;;
3349;SDS011;1688;51.000;13.684;2022-07-29T08:17:24;59.00;;;34.17;;
3349;SDS011;1688;51.000;13.684;2022-07-29T08:19:51;49.97;;;30.50;;
3349;SDS011;1688;51.000;13.684;2022-07-29T08:22:17;56.50;;;28.50;;
3349;SDS011;1688;51.000;13.684;2022-07-29T08:24:43;61.57;;;36.90;;
3349;SDS011;1688;51.000;13.684;2022-07-29T08:27:09;60.97;;;33.40;;
3349;SDS011;1688;51.000;13.684;2022-07-29T08:29:36;62.47;;;33.20;;
3349;SDS011;1688;51.000;13.684;2022-07-29T08:32:04;75.70;;;36.63;;
3349;SDS011;1688;51.000;13.684;2022-07-29T08:34:30;56.40;;;33.43;;
3349;SDS011;1688;51.000;13.684;2022-07-29T08:36:56;59.10;;;31.77;;
3349;SDS011;1688;51.000;13.684;2022-07-29T08:39:22;53.67;;;25.30;;
3349;SDS011;1688;51.000;13.684;2022-07-29T08:41:49;39.47;;;21.93;;
3349;SDS011;1688;51.000;13.684;2022-07-29T08:44:16;35.93;;;22.00;;
3349;SDS011;1688;51.000;13.684;2022-07-29T08:46:47;45.83;;;25.40;;
3349;SDS011;1688;51.000;13.684;2022-07-29T08:49:23;47.00;;;24.27;;
3349;SDS011;1688;51.000;13.684;2022-07-29T08:52:03;34.97;;;19.97;;
3349;SDS011;1688;51.000;13.684;2022-07-29T08:54:30;34.23;;;18.23;;
3349;SDS011;1688;51.000;13.684;2022-07-29T08:56:56;25.10;;;15.43;;
3349;SDS011;1688;51.000;13.684;2022-07-29T08:59:24;40.23;;;18.57;;
3349;SDS011;1688;51.000;13.684;2022-07-29T09:01:52;27.60;;;17.10;;
3349;SDS011;1688;51.000;13.684;2022-07-29T09:04:19;25.93;;;15.80;;
3349;SDS011;1688;51.000;13.684;2022-07-29T09:06:47;24.80;;;14.90;;
3349;SDS011;1688;51.000;13.684;2022-07-29T09:09:16;21.97;;;12.87;;
3349;SDS011;1688;51.000;13.684;2022-07-29T09:11:42;25.47;;;14.97;;
3349;SDS011;1688;51.000;13.684;2022-07-29T09:14:08;28.87;;;14.57;;
3349;SDS011;1688;51.000;13.684;2022-07-29T09:16:44;18.07;;;12.13;;
3349;SDS011;1688;51.000;13.684;2022-07-29T09:21:52;19.93;;;14.30;;
3349;SDS011;1688;51.000;13.684;2022-07-29T09:24:25;25.40;;;12.07;;
3349;SDS011;1688;51.000;13.684;2022-07-29T09:27:08;17.43;;;11.27;;
3349;SDS011;1688;51.000;13.684;2022-07-29T09:29:43;17.10;;;11.37;;
3349;SDS011;1688;51.000;13.684;2022-07-29T09:32:09;22.00;;;11.80;;
3349;SDS011;1688;51.000;13.684;2022-07-29T09:34:36;14.40;;;10.73;;
3349;SDS011;1688;51.000;13.684;2022-07-29T09:37:02;23.30;;;13.20;;
3349;SDS011;1688;51.000;13.684;2022-07-29T09:39:33;16.40;;;11.77;;
3349;SDS011;1688;51.000;13.684;2022-07-29T09:42:05;20.73;;;12.10;;
3349;SDS011;1688;51.000;13.684;2022-07-29T09:44:44;23.60;;;13.33;;
3349;SDS011;1688;51.000;13.684;2022-07-29T09:47:13;16.60;;;10.90;;
3349;SDS011;1688;51.000;13.684;2022-07-29T09:49:55;30.83;;;14.23;;
3349;SDS011;1688;51.000;13.684;2022-07-29T09:52:29;22.93;;;13.40;;
3349;SDS011;1688;51.000;13.684;2022-07-29T09:55:08;16.33;;;11.13;;
3349;SDS011;1688;51.000;13.684;2022-07-29T09:57:35;21.07;;;12.37;;
3349;SDS011;1688;51.000;13.684;2022-07-29T10:00:03;25.43;;;14.67;;
3349;SDS011;1688;51.000;13.684;2022-07-29T10:02:36;20.13;;;13.10;;
3349;SDS011;1688;51.000;13.684;2022-07-29T10:05:03;22.20;;;13.83;;
3349;SDS011;1688;51.000;13.684;2022-07-29T10:07:48;29.17;;;16.53;;
3349;SDS011;1688;51.000;13.684;2022-07-29T10:10:19;32.43;;;11.70;;
3349;SDS011;1688;51.000;13.684;2022-07-29T10:12:56;17.70;;;10.10;;
3349;SDS011;1688;51.000;13.684;2022-07-29T10:15:24;13.90;;;9.40;;
3349;SDS011;1688;51.000;13.684;2022-07-29T10:17:52;17.33;;;8.77;;
3349;SDS011;1688;51.000;13.684;2022-07-29T10:20:20;16.90;;;8.77;;
3349;SDS011;1688;51.000;13.684;2022-07-29T10:22:51;17.50;;;9.17;;
3349;SDS011;1688;51.000;13.684;2022-07-29T10:25:17;17.70;;;9.43;;
3349;SDS011;1688;51.000;13.684;2022-07-29T10:27:45;12.53;;;8.27;;
3349;SDS011;1688;51.000;13.684;2022-07-29T10:30:13;11.33;;;7.00;;
3349;SDS011;1688;51.000;13.684;2022-07-29T10:32:53;15.23;;;9.70;;
3349;SDS011;1688;51.000;13.684;2022-07-29T10:35:47;9.60;;;7.70;;
3349;SDS011;1688;51.000;13.684;2022-07-29T10:38:41;11.17;;;9.03;;
3349;SDS011;1688;51.000;13.684;2022-07-29T10:44:02;8.73;;;5.53;;
3349;SDS011;1688;51.000;13.684;2022-07-29T10:46:36;6.03;;;5.10;;
3349;SDS011;1688;51.000;13.684;2022-07-29T10:49:04;13.17;;;5.87;;
3349;SDS011;1688;51.000;13.684;2022-07-29T10:52:04;5.90;;;5.00;;
3349;SDS011;1688;51.000;13.684;2022-07-29T10:59:48;5.73;;;4.93;;
3349;SDS011;1688;51.000;13.684;2022-07-29T11:05:14;5.50;;;3.97;;
3349;SDS011;1688;51.000;13.684;2022-07-29T11:08:30;4.40;;;3.67;;
3349;SDS011;1688;51.000;13.684;2022-07-29T11:10:44;6.27;;;3.73;;
3349;SDS011;1688;51.000;13.684;2022-07-29T11:13:09;4.20;;;2.60;;
3349;SDS011;1688;51.000;13.684;2022-07-29T11:15:54;4.10;;;3.57;;
3349;SDS011;1688;51.000;13.684;2022-07-29T11:18:22;2.47;;;2.27;;
3349;SDS011;1688;51.000;13.684;2022-07-29T11:20:48;4.10;;;2.40;;
3349;SDS011;1688;51.000;13.684;2022-07-29T11:23:28;2.93;;;2.70;;
3349;SDS011;1688;51.000;13.684;2022-07-29T11:28:53;5.17;;;2.90;;
3349;SDS011;1688;51.000;13.684;2022-07-29T11:31:45;6.20;;;3.63;;
3349;SDS011;1688;51.000;13.684;2022-07-29T11:37:13;4.00;;;3.40;;
3349;SDS011;1688;51.000;13.684;2022-07-29T11:47:38;6.00;;;2.93;;
3349;SDS011;1688;51.000;13.684;2022-07-29T11:50:08;3.53;;;2.90;;
3349;SDS011;1688;51.000;13.684;2022-07-29T11:52:45;4.10;;;2.50;;
3349;SDS011;1688;51.000;13.684;2022-07-29T11:55:13;7.90;;;2.37;;
3349;SDS011;1688;51.000;13.684;2022-07-29T11:57:47;4.53;;;2.87;;
3349;SDS011;1688;51.000;13.684;2022-07-29T12:00:28;2.50;;;2.30;;
3349;SDS011;1688;51.000;13.684;2022-07-29T12:03:05;3.03;;;2.73;;
3349;SDS011;1688;51.000;13.684;2022-07-29T12:05:37;3.90;;;2.20;;
3349;SDS011;1688;51.000;13.684;2022-07-29T12:08:17;2.70;;;2.50;;
3349;SDS011;1688;51.000;13.684;2022-07-29T12:10:45;2.97;;;2.10;;
3349;SDS011;1688;51.000;13.684;2022-07-29T12:13:12;2.93;;;2.73;;
3349;SDS011;1688;51.000;13.684;2022-07-29T12:15:40;2.50;;;2.30;;
3349;SDS011;1688;51.000;13.684;2022-07-29T12:18:09;2.70;;;2.50;;
3349;SDS011;1688;51.000;13.684;2022-07-29T12:20:36;3.10;;;2.50;;
3349;SDS011;1688;51.000;13.684;2022-07-29T12:23:06;6.80;;;3.30;;
3349;SDS011;1688;51.000;13.684;2022-07-29T12:25:34;4.27;;;2.80;;
3349;SDS011;1688;51.000;13.684;2022-07-29T12:28:03;3.30;;;2.97;;
3349;SDS011;1688;51.000;13.684;2022-07-29T12:30:40;3.53;;;3.23;;
3349;SDS011;1688;51.000;13.684;2022-07-29T12:35:38;2.90;;;2.67;;
3349;SDS011;1688;51.000;13.684;2022-07-29T12:38:04;3.30;;;2.50;;
3349;SDS011;1688;51.000;13.684;2022-07-29T12:40:30;9.80;;;3.20;;
3349;SDS011;1688;51.000;13.684;2022-07-29T12:45:36;3.20;;;2.90;;
3349;SDS011;1688;51.000;13.684;2022-07-29T12:48:03;2.47;;;2.27;;
3349;SDS011;1688;51.000;13.684;2022-07-29T12:50:29;6.10;;;2.53;;
3349;SDS011;1688;51.000;13.684;2022-07-29T12:53:07;3.53;;;3.03;;
3349;SDS011;1688;51.000;13.684;2022-07-29T12:55:53;5.10;;;3.10;;
3349;SDS011;1688;51.000;13.684;2022-07-29T12:58:39;6.73;;;2.57;;
3349;SDS011;1688;51.000;13.684;2022-07-29T13:01:08;2.90;;;2.50;;
3349;SDS011;1688;51.000;13.684;2022-07-29T13:09:00;3.80;;;3.40;;
3349;SDS011;1688;51.000;13.684;2022-07-29T13:11:27;2.73;;;2.53;;
3349;SDS011;1688;51.000;13.684;2022-07-29T13:13:56;2.87;;;2.53;;
3349;SDS011;1688;51.000;13.684;2022-07-29T13:16:22;3.00;;;2.43;;
3349;SDS011;1688;51.000;13.684;2022-07-29T13:18:48;6.83;;;3.40;;
3349;SDS011;1688;51.000;13.684;2022-07-29T13:21:27;8.53;;;2.87;;
3349;SDS011;1688;51.000;13.684;2022-07-29T13:23:53;2.67;;;2.47;;
3349;SDS011;1688;51.000;13.684;2022-07-29T13:26:19;3.50;;;3.20;;
3349;SDS011;1688;51.000;13.684;2022-07-29T13:28:45;4.03;;;2.87;;
3349;SDS011;1688;51.000;13.684;2022-07-29T13:31:11;3.30;;;2.93;;
3349;SDS011;1688;51.000;13.684;2022-07-29T13:33:37;5.43;;;2.90;;
3349;SDS011;1688;51.000;13.684;2022-07-29T13:36:02;3.00;;;2.60;;
3349;SDS011;1688;51.000;13.684;2022-07-29T13:38:28;3.53;;;3.23;;
3349;SDS011;1688;51.000;13.684;2022-07-29T13:40:54;3.40;;;2.67;;
3349;SDS011;1688;51.000;13.684;2022-07-29T13:43:21;5.20;;;2.40;;
3349;SDS011;1688;51.000;13.684;2022-07-29T13:45:46;3.57;;;2.47;;
3349;SDS011;1688;51.000;13.684;2022-07-29T13:48:12;4.07;;;2.50;;
3349;SDS011;1688;51.000;13.684;2022-07-29T13:50:38;5.20;;;2.70;;
3349;SDS011;1688;51.000;13.684;2022-07-29T13:53:03;5.83;;;3.57;;
3349;SDS011;1688;51.000;13.684;2022-07-29T13:55:29;3.30;;;2.97;;
3349;SDS011;1688;51.000;13.684;2022-07-29T13:57:55;8.10;;;3.00;;
3349;SDS011;1688;51.000;13.684;2022-07-29T14:00:20;3.17;;;2.93;;
3349;SDS011;1688;51.000;13.684;2022-07-29T14:02:48;2.77;;;2.53;;
3349;SDS011;1688;51.000;13.684;2022-07-29T14:05:14;3.20;;;2.23;;
3349;SDS011;1688;51.000;13.684;2022-07-29T14:07:40;3.50;;;2.80;;
3349;SDS011;1688;51.000;13.684;2022-07-29T14:10:06;5.33;;;3.50;;
3349;SDS011;1688;51.000;13.684;2022-07-29T14:12:34;3.03;;;2.73;;
3349;SDS011;1688;51.000;13.684;2022-07-29T14:15:02;3.23;;;2.93;;
3349;SDS011;1688;51.000;13.684;2022-07-29T14:17:28;5.07;;;3.13;;
3349;SDS011;1688;51.000;13.684;2022-07-29T14:19:54;3.30;;;2.57;;
3349;SDS011;1688;51.000;13.684;2022-07-29T14:22:19;2.67;;;2.47;;
3349;SDS011;1688;51.000;13.684;2022-07-29T14:24:46;3.33;;;3.03;;
3349;SDS011;1688;51.000;13.684;2022-07-29T14:27:12;3.37;;;2.73;;
3349;SDS011;1688;51.000;13.684;2022-07-29T14:29:37;3.50;;;2.27;;
3349;SDS011;1688;51.000;13.684;2022-07-29T14:32:06;5.10;;;3.10;;
3349;SDS011;1688;51.000;13.684;2022-07-29T14:34:33;3.17;;;2.60;;
3349;SDS011;1688;51.000;13.684;2022-07-29T14:36:59;2.87;;;2.67;;
3349;SDS011;1688;51.000;13.684;2022-07-29T14:39:26;2.70;;;2.50;;
3349;SDS011;1688;51.000;13.684;2022-07-29T14:41:52;7.83;;;3.00;;
3349;SDS011;1688;51.000;13.684;2022-07-29T14:44:18;2.43;;;2.23;;
3349;SDS011;1688;51.000;13.684;2022-07-29T14:46:43;3.00;;;2.80;;
3349;SDS011;1688;51.000;13.684;2022-07-29T14:49:09;3.93;;;2.93;;
3349;SDS011;1688;51.000;13.684;2022-07-29T14:51:35;2.70;;;2.43;;
3349;SDS011;1688;51.000;13.684;2022-07-29T14:54:01;2.60;;;2.40;;
3349;SDS011;1688;51.000;13.684;2022-07-29T14:56:27;4.40;;;2.37;;
3349;SDS011;1688;51.000;13.684;2022-07-29T14:58:55;2.70;;;2.50;;
3349;SDS011;1688;51.000;13.684;2022-07-29T15:01:22;2.87;;;2.67;;
3349;SDS011;1688;51.000;13.684;2022-07-29T15:03:49;2.90;;;2.43;;
3349;SDS011;1688;51.000;13.684;2022-07-29T15:06:15;2.80;;;2.60;;
3349;SDS011;1688;51.000;13.684;2022-07-29T15:08:41;5.83;;;2.80;;
3349;SDS011;1688;51.000;13.684;2022-07-29T15:11:07;3.27;;;2.83;;
3349;SDS011;1688;51.000;13.684;2022-07-29T15:13:33;2.30;;;2.10;;
3349;SDS011;1688;51.000;13.684;2022-07-29T15:15:59;3.13;;;2.53;;
3349;SDS011;1688;51.000;13.684;2022-07-29T15:18:25;3.37;;;2.57;;
3349;SDS011;1688;51.000;13.684;2022-07-29T15:20:52;10.93;;;3.70;;
3349;SDS011;1688;51.000;13.684;2022-07-29T15:23:18;3.37;;;3.03;;
3349;SDS011;1688;51.000;13.684;2022-07-29T15:25:44;3.73;;;3.00;;
3349;SDS011;1688;51.000;13.684;2022-07-29T15:28:10;3.87;;;2.90;;
3349;SDS011;1688;51.000;13.684;2022-07-29T15:30:36;4.60;;;2.63;;
3349;SDS011;1688;51.000;13.684;2022-07-29T15:33:05;2.83;;;2.40;;
3349;SDS011;1688;51.000;13.684;2022-07-29T15:35:33;5.03;;;3.10;;
3349;SDS011;1688;51.000;13.684;2022-07-29T15:37:59;4.17;;;3.50;;
3349;SDS011;1688;51.000;13.684;2022-07-29T15:40:25;3.77;;;3.10;;
3349;SDS011;1688;51.000;13.684;2022-07-29T15:42:50;3.93;;;2.40;;
3349;SDS011;1688;51.000;13.684;2022-07-29T15:45:16;2.93;;;2.57;;